Aviation Digital Data Service (ADDS)

Output produced by METARs form (0513 UTC 22 July 2017)
found at http://www.aviationweather.gov/adds/metars/
 
KDFW 220253Z 2203/2306 13011KT P6SM SKC 
     FM221000 17009KT P6SM FEW080